La Vista, Nebraska
Current Conditions -  °F | °C
As of 2:35 PM on Thursday 23 Oct 2014 (Local Time) from KMLE Reporting Station
Clear Clear  
Wind Chill: 68°   Ceiling: Unl
Heat Index: 68°   Visibility: 10mi
Dew Point: 51°   Wind: 3mph
Humidity: 55%   Direction: 280°W
Pressure: 30.03"   Gusts: NA
Location:  41.19°N, 96.04°W
Report Text: KMLE 231935Z AUTO 28003KT 10SM CLR 20/11 A3003 RMK AO2 T02010107
Loading
Personal Weather Stations






























Interactive Weather Map
Tropical Storm Tracking
New forecast layout! Learn more

10-Day Weather Forecast

Advertisements
Track Severe Weather on mobile